Terminal Aerodrome Forecast
Issued by NWS Houston/Galveston, TX

Home | Current Version | Previous Version | Text Only | Print | Product List | Glossary On
Versions: 1 2 3 4 5 6 7 8 9 10 11 12 13 14 15 16 17 18 19 20 21 22 23 24 25 26 27 28 29 30 31 32 33 34 35 36 37 38 39 40 41 42 43 44 45 46 47 48 49 50
000
FTUS44 KHGX 052115 AAB
TAFGLS
TAF AMD
KGLS 052115Z 0521/0618 26010G17KT 1 1/2SM -RA BR OVC005
      TEMPO 0521/0523 6SM -DZ BR
     FM052300 27011KT 6SM -DZ BR OVC007
     FM060300 28015KT P6SM SCT007 BKN015
     FM060800 26010KT P6SM FEW015
     FM061200 25007KT P6SM SKC
     FM061500 25010KT P6SM SKC=

USA.gov is the U.S. government's official web portal to all federal, state and local government web resources and services.